createdAt,value
2019-05-20T00:02:28.378Z,11.43
2019-05-20T00:04:56.464Z,11.23
2019-05-20T00:07:26.637Z,10.30
2019-05-20T00:09:56.785Z,13.67
2019-05-20T00:12:26.937Z,12.67
2019-05-20T00:14:57.057Z,13.97
2019-05-20T00:17:27.219Z,11.37
2019-05-20T00:19:57.377Z,12.20
2019-05-20T00:22:27.753Z,15.00
2019-05-20T00:24:57.892Z,16.07
2019-05-20T00:27:39.293Z,15.43
2019-05-20T00:30:10.867Z,17.50
2019-05-20T00:33:02.003Z,12.60
2019-05-20T00:35:32.178Z,12.20
2019-05-20T00:38:02.314Z,16.60
2019-05-20T00:40:32.449Z,17.63
2019-05-20T00:43:02.617Z,17.13
2019-05-20T00:45:32.788Z,15.57
2019-05-20T00:48:03.003Z,15.80
2019-05-20T00:50:33.948Z,18.00
2019-05-20T00:53:04.213Z,19.77
2019-05-20T00:55:36.517Z,15.37
2019-05-20T00:58:06.686Z,17.80
2019-05-20T01:00:37.035Z,16.40
2019-05-20T01:03:07.186Z,18.87
2019-05-20T01:05:42.637Z,15.93
2019-05-20T01:08:12.837Z,19.83
2019-05-20T01:11:05.745Z,21.10
2019-05-20T01:13:35.890Z,18.27
2019-05-20T01:16:16.597Z,19.40
2019-05-20T01:18:46.730Z,17.50
2019-05-20T01:21:16.836Z,15.77
2019-05-20T01:23:47.073Z,20.30
2019-05-20T01:26:17.203Z,18.37
2019-05-20T01:28:47.404Z,18.53
2019-05-20T01:31:17.648Z,17.47
2019-05-20T01:33:47.788Z,18.17
2019-05-20T01:36:17.949Z,19.20
2019-05-20T01:38:48.120Z,19.90
2019-05-20T01:41:18.284Z,17.17
2019-05-20T01:43:53.681Z,15.73
2019-05-20T01:46:23.841Z,18.43
2019-05-20T01:48:57.237Z,16.90
2019-05-20T01:51:27.380Z,19.67
2019-05-20T01:54:22.321Z,17.57
2019-05-20T01:56:52.465Z,22.10
2019-05-20T01:59:41.268Z,20.80
2019-05-20T02:02:11.400Z,17.77
2019-05-20T02:04:41.534Z,17.10
2019-05-20T02:07:11.720Z,15.70
2019-05-20T02:09:41.861Z,17.40
2019-05-20T02:12:12.030Z,17.13
2019-05-20T02:14:51.129Z,14.70
2019-05-20T02:17:21.289Z,15.87
2019-05-20T02:19:51.479Z,16.93
2019-05-20T02:22:21.653Z,14.67
2019-05-20T02:24:51.781Z,15.97
2019-05-20T02:27:21.937Z,19.13
2019-05-20T02:29:52.075Z,14.80
2019-05-20T02:32:22.373Z,18.03
2019-05-20T02:34:52.509Z,15.20
2019-05-20T02:37:41.951Z,15.33
2019-05-20T02:40:12.614Z,12.83
2019-05-20T02:42:42.753Z,14.57
2019-05-20T02:45:13.106Z,14.77
2019-05-20T02:47:43.378Z,17.27
2019-05-20T02:50:13.608Z,14.13
2019-05-20T02:52:44.445Z,13.83
2019-05-20T02:55:14.829Z,14.40
2019-05-20T02:57:45.044Z,15.27
2019-05-20T03:00:15.389Z,15.43
2019-05-20T03:02:45.574Z,15.13
2019-05-20T03:05:15.738Z,13.60
2019-05-20T03:07:45.872Z,13.87
2019-05-20T03:10:16.351Z,13.97
2019-05-20T03:12:46.493Z,16.73
2019-05-20T03:15:37.021Z,11.83
2019-05-20T03:18:07.156Z,14.03
2019-05-20T03:20:59.056Z,12.77
2019-05-20T03:23:25.840Z,14.07
2019-05-20T03:25:56.085Z,12.40
2019-05-20T03:28:26.160Z,10.43
2019-05-20T03:30:56.300Z,12.60
2019-05-20T03:33:26.607Z,12.93
2019-05-20T03:35:56.738Z,14.23
2019-05-20T03:38:26.915Z,13.40
2019-05-20T03:40:57.086Z,13.43
2019-05-20T03:43:27.213Z,12.67
2019-05-20T03:45:57.396Z,12.23
2019-05-20T03:48:27.573Z,8.53
2019-05-20T03:50:57.726Z,11.30
2019-05-20T03:53:27.878Z,9.33
2019-05-20T03:55:59.743Z,12.00
2019-05-20T03:58:47.971Z,11.27
2019-05-20T04:01:20.071Z,13.87
2019-05-20T04:04:12.223Z,16.83
2019-05-20T04:06:42.438Z,10.77
2019-05-20T04:09:22.221Z,11.97
2019-05-20T04:11:52.469Z,12.53
2019-05-20T04:14:22.627Z,11.63
2019-05-20T04:16:53.105Z,9.87
2019-05-20T04:19:23.274Z,8.63
2019-05-20T04:21:53.601Z,10.63
2019-05-20T04:24:23.781Z,9.50
2019-05-20T04:26:58.998Z,10.93
2019-05-20T04:29:29.296Z,8.30
2019-05-20T04:31:59.494Z,10.83
2019-05-20T04:34:29.625Z,10.63
2019-05-20T04:36:59.780Z,10.90
2019-05-20T04:39:29.955Z,7.20
2019-05-20T04:42:10.081Z,8.67
2019-05-20T04:44:40.321Z,9.97
2019-05-20T04:47:10.480Z,9.17
2019-05-20T04:49:40.598Z,10.80
2019-05-20T04:52:10.714Z,11.13
2019-05-20T04:54:40.919Z,8.47
2019-05-20T04:57:11.150Z,7.07
2019-05-20T04:59:41.257Z,9.47
2019-05-20T05:02:11.393Z,7.40
2019-05-20T05:04:41.552Z,7.27
2019-05-20T05:07:11.888Z,8.07
2019-05-20T05:09:45.123Z,7.27
2019-05-20T05:12:15.485Z,7.30
2019-05-20T05:14:59.684Z,7.43
2019-05-20T05:17:30.210Z,7.43
2019-05-20T05:20:00.466Z,6.50
2019-05-20T05:22:30.592Z,7.80
2019-05-20T05:25:00.858Z,7.43
2019-05-20T05:27:31.000Z,6.80
2019-05-20T05:30:01.177Z,6.93
2019-05-20T05:32:43.971Z,6.03
2019-05-20T05:35:16.573Z,5.97
2019-05-20T05:37:47.360Z,6.87
2019-05-20T05:40:17.984Z,6.43
2019-05-20T05:42:48.175Z,8.13
2019-05-20T05:45:21.250Z,7.50
2019-05-20T05:47:56.677Z,9.33
2019-05-20T05:50:26.936Z,7.70
2019-05-20T05:53:20.073Z,6.90
2019-05-20T05:55:50.209Z,6.30
2019-05-20T05:58:21.849Z,6.20
2019-05-20T06:00:51.919Z,5.50
2019-05-20T06:03:22.196Z,7.27
2019-05-20T06:06:10.313Z,4.73
2019-05-20T06:08:24.249Z,5.67
2019-05-20T06:10:54.441Z,5.67
2019-05-20T06:13:24.614Z,6.87
2019-05-20T06:15:54.839Z,7.20
2019-05-20T06:18:24.973Z,8.73
2019-05-20T06:20:55.246Z,9.40
2019-05-20T06:23:25.388Z,5.80
2019-05-20T06:26:03.581Z,9.80
2019-05-20T06:28:33.722Z,4.40
2019-05-20T06:31:22.160Z,4.03
2019-05-20T06:33:52.302Z,4.73
2019-05-20T06:36:26.992Z,4.57
2019-05-20T06:39:13.268Z,6.50
2019-05-20T06:41:43.470Z,9.50
2019-05-20T06:44:13.637Z,4.50
2019-05-20T06:46:43.747Z,5.53
2019-05-20T06:49:13.919Z,5.17
2019-05-20T06:51:44.024Z,8.03
2019-05-20T06:54:14.246Z,4.37
2019-05-20T06:56:44.472Z,6.30
2019-05-20T06:59:14.625Z,4.50
2019-05-20T07:01:44.767Z,6.80
2019-05-20T07:04:14.933Z,4.30
2019-05-20T07:06:47.409Z,9.20
2019-05-20T07:09:34.290Z,5.23
2019-05-20T07:12:04.654Z,7.63
2019-05-20T07:14:51.096Z,5.77
2019-05-20T07:17:21.260Z,6.33
2019-05-20T07:19:51.384Z,5.97
2019-05-20T07:22:21.982Z,7.67
2019-05-20T07:24:52.133Z,8.10
2019-05-20T07:27:22.393Z,4.73
2019-05-20T07:29:52.538Z,6.63
2019-05-20T07:32:22.735Z,7.17
2019-05-20T07:34:52.901Z,6.23
2019-05-20T07:37:23.102Z,5.57
2019-05-20T07:39:53.265Z,4.63
2019-05-20T07:42:23.469Z,4.60
2019-05-20T07:44:53.645Z,6.60
2019-05-20T07:47:34.126Z,4.80
2019-05-20T07:50:04.864Z,7.60
2019-05-20T07:52:35.279Z,6.70
2019-05-20T07:55:06.525Z,6.20
2019-05-20T07:57:39.658Z,8.23
2019-05-20T08:00:11.288Z,7.33
2019-05-20T08:02:41.585Z,5.10
2019-05-20T08:05:11.917Z,5.03
2019-05-20T08:07:52.040Z,4.37
2019-05-20T08:10:14.026Z,4.83
2019-05-20T08:12:44.328Z,5.37
2019-05-20T08:15:31.938Z,7.43
2019-05-20T08:18:02.237Z,10.93
2019-05-20T08:20:56.328Z,4.60
2019-05-20T08:23:26.470Z,6.07
2019-05-20T08:25:56.593Z,4.40
2019-05-20T08:28:26.761Z,6.50
2019-05-20T08:30:56.987Z,5.77
2019-05-20T08:33:27.181Z,8.03
2019-05-20T08:35:57.367Z,4.73
2019-05-20T08:38:27.468Z,8.50
2019-05-20T08:40:57.665Z,5.73
2019-05-20T08:43:27.792Z,6.57
2019-05-20T08:45:57.970Z,5.17
2019-05-20T08:48:42.537Z,6.03
2019-05-20T08:51:12.612Z,12.70
2019-05-20T08:54:14.672Z,5.60
2019-05-20T08:56:44.809Z,5.83
2019-05-20T08:59:32.640Z,5.80
2019-05-20T09:02:02.801Z,7.50
2019-05-20T09:04:32.959Z,6.60
2019-05-20T09:07:03.102Z,4.77
2019-05-20T09:09:33.885Z,5.43
2019-05-20T09:12:26.575Z,6.00
2019-05-20T09:14:56.709Z,9.93
2019-05-20T09:17:26.847Z,7.27
2019-05-20T09:19:56.962Z,5.10
2019-05-20T09:22:27.130Z,5.60
2019-05-20T09:24:57.343Z,5.40
2019-05-20T09:27:27.549Z,4.47
2019-05-20T09:29:57.622Z,6.33
2019-05-20T09:32:42.820Z,5.13
2019-05-20T09:35:12.005Z,8.80
2019-05-20T09:37:44.458Z,5.73
2019-05-20T09:40:19.757Z,7.33
2019-05-20T09:42:49.927Z,5.87
2019-05-20T09:45:20.027Z,6.40
2019-05-20T09:47:50.231Z,7.30
2019-05-20T09:50:20.342Z,6.60
2019-05-20T09:52:50.497Z,4.73
2019-05-20T09:55:20.602Z,9.17
2019-05-20T09:57:50.790Z,6.83
2019-05-20T10:00:21.227Z,8.10
2019-05-20T10:02:51.376Z,7.60
2019-05-20T10:05:32.186Z,5.47
2019-05-20T10:08:02.507Z,7.00
2019-05-20T10:10:53.405Z,7.17
2019-05-20T10:13:23.536Z,6.23
2019-05-20T10:15:54.807Z,5.27
2019-05-20T10:18:36.871Z,10.63
2019-05-20T10:20:57.131Z,5.63
2019-05-20T10:23:27.291Z,8.40
2019-05-20T10:25:57.460Z,7.60
2019-05-20T10:28:27.725Z,6.77
2019-05-20T10:30:57.879Z,6.77
2019-05-20T10:33:28.074Z,6.07
2019-05-20T10:35:58.244Z,5.53
2019-05-20T10:38:28.449Z,5.50
2019-05-20T10:40:58.577Z,6.33
2019-05-20T10:43:28.694Z,11.30
2019-05-20T10:45:58.964Z,7.47
2019-05-20T10:48:29.170Z,5.10
2019-05-20T10:50:59.271Z,5.30
2019-05-20T10:53:29.408Z,9.23
2019-05-20T10:55:59.764Z,7.00
2019-05-20T10:58:29.943Z,7.40
2019-05-20T11:01:03.511Z,6.47
2019-05-20T11:03:31.921Z,7.97
2019-05-20T11:06:02.061Z,9.20
2019-05-20T11:08:32.266Z,6.23
2019-05-20T11:11:14.277Z,9.50
2019-05-20T11:13:44.696Z,9.03
2019-05-20T11:16:14.830Z,8.37
2019-05-20T11:18:54.347Z,8.10
2019-05-20T11:21:24.624Z,5.53
2019-05-20T11:23:54.754Z,5.17
2019-05-20T11:26:24.879Z,7.60
2019-05-20T11:28:55.012Z,4.93
2019-05-20T11:31:25.191Z,9.27
2019-05-20T11:33:57.618Z,10.03
2019-05-20T11:36:27.093Z,6.33
2019-05-20T11:39:07.393Z,6.53
2019-05-20T11:41:52.758Z,6.80
2019-05-20T11:44:26.436Z,5.50
2019-05-20T11:46:54.634Z,6.83
2019-05-20T11:49:28.778Z,8.40
2019-05-20T11:51:56.515Z,5.30
2019-05-20T11:54:26.671Z,7.77
2019-05-20T11:56:56.786Z,7.03
2019-05-20T11:59:26.935Z,5.30
2019-05-20T12:01:57.085Z,8.97
2019-05-20T12:04:27.364Z,9.83
2019-05-20T12:06:57.718Z,5.03
2019-05-20T12:09:27.940Z,6.63
2019-05-20T12:11:58.069Z,8.90
2019-05-20T12:14:28.334Z,5.57
2019-05-20T12:40:09.305Z,8.63
2019-05-20T12:42:39.452Z,7.93
2019-05-20T12:45:11.170Z,6.67
2019-05-20T12:47:41.301Z,7.00
2019-05-20T12:50:12.246Z,6.33
2019-05-20T12:52:42.366Z,7.97
2019-05-20T12:55:34.181Z,8.90
2019-05-20T12:58:04.345Z,8.70
2019-05-20T13:00:34.662Z,13.07
2019-05-20T13:03:04.834Z,9.57
2019-05-20T13:05:35.029Z,8.93
2019-05-20T13:08:05.705Z,9.50
2019-05-20T13:10:36.025Z,7.30
2019-05-20T13:13:06.202Z,8.43
2019-05-20T13:15:36.341Z,5.57
2019-05-20T13:18:07.113Z,7.90
2019-05-20T13:20:37.339Z,6.40
2019-05-20T13:23:12.894Z,9.80
2019-05-20T13:25:42.082Z,7.10
2019-05-20T13:28:34.523Z,6.67
2019-05-20T13:30:58.316Z,7.20
2019-05-20T13:33:28.587Z,7.77
2019-05-20T13:35:58.710Z,7.47
2019-05-20T13:38:28.886Z,7.30
2019-05-20T13:40:59.026Z,8.43
2019-05-20T13:43:29.594Z,9.77
2019-05-20T13:45:59.754Z,6.97
2019-05-20T13:48:29.955Z,7.73
2019-05-20T13:51:00.135Z,8.77
2019-05-20T13:53:30.265Z,7.83
2019-05-20T13:56:00.634Z,10.80
2019-05-20T13:58:31.002Z,8.50
2019-05-20T14:01:14.889Z,6.33
2019-05-20T14:03:45.243Z,7.27
2019-05-20T14:06:37.493Z,9.17
2019-05-20T14:09:08.021Z,10.07
2019-05-20T14:11:38.434Z,6.93
2019-05-20T14:14:09.170Z,8.77
2019-05-20T14:16:39.351Z,8.63
2019-05-20T14:19:09.523Z,9.37
2019-05-20T14:21:39.782Z,7.30
2019-05-20T14:24:09.933Z,7.60
2019-05-20T14:26:40.153Z,7.43
2019-05-20T14:29:11.554Z,9.97
2019-05-20T14:31:41.613Z,8.27
2019-05-20T14:34:11.759Z,8.37
2019-05-20T14:36:41.956Z,8.80
2019-05-20T14:39:13.315Z,14.10
2019-05-20T14:41:43.617Z,16.23
2019-05-20T14:44:14.175Z,7.60
2019-05-20T14:46:44.303Z,12.43
2019-05-20T14:49:14.465Z,10.93
2019-05-20T14:51:44.636Z,17.60
2019-05-20T14:54:14.840Z,16.60
2019-05-20T14:56:45.232Z,18.17
2019-05-20T14:59:15.393Z,18.10
2019-05-20T15:01:45.644Z,20.67
2019-05-20T15:04:15.812Z,18.80
2019-05-20T15:06:45.981Z,11.67
2019-05-20T15:09:16.138Z,16.37
2019-05-20T15:12:08.180Z,17.30
2019-05-20T15:14:38.409Z,18.43
2019-05-20T15:17:33.854Z,15.03
2019-05-20T15:20:04.340Z,12.07
2019-05-20T15:22:34.545Z,14.53
2019-05-20T15:25:05.042Z,16.67
2019-05-20T15:27:35.464Z,18.83
2019-05-20T15:30:07.086Z,17.37
2019-05-20T15:32:37.271Z,18.20
2019-05-20T15:35:07.662Z,13.93
2019-05-20T15:37:37.794Z,15.83
2019-05-20T15:40:08.382Z,21.40
2019-05-20T15:42:38.519Z,16.33
2019-05-20T15:45:11.818Z,21.33
2019-05-20T15:47:42.386Z,19.43
2019-05-20T15:50:32.578Z,17.53
2019-05-20T15:53:05.211Z,20.37
2019-05-20T15:55:53.804Z,23.40
2019-05-20T15:58:24.103Z,17.27
2019-05-20T16:00:55.481Z,12.10
2019-05-20T16:03:25.671Z,14.20
2019-05-20T16:05:59.610Z,14.50
2019-05-20T16:08:27.668Z,12.97
2019-05-20T16:10:57.868Z,16.03
2019-05-20T16:13:28.016Z,14.97
2019-05-20T16:15:58.281Z,12.70
2019-05-20T16:18:28.423Z,15.43
2019-05-20T16:20:58.603Z,12.83
2019-05-20T16:23:28.707Z,15.43
2019-05-20T16:25:58.890Z,13.77
2019-05-20T16:28:29.039Z,12.33
2019-05-20T16:30:59.193Z,12.40
2019-05-20T16:33:51.171Z,17.60
2019-05-20T16:36:21.504Z,100.37
2019-05-20T16:39:11.642Z,18.83
2019-05-20T16:41:41.762Z,22.60
2019-05-20T16:44:35.589Z,14.47
2019-05-20T16:47:05.764Z,16.07
2019-05-20T16:49:56.986Z,20.67
2019-05-20T16:52:27.298Z,18.30
2019-05-20T16:55:02.216Z,18.63
2019-05-20T16:57:29.294Z,11.27
2019-05-20T16:59:59.476Z,16.40
2019-05-20T17:02:29.601Z,13.80
2019-05-20T17:04:59.783Z,20.37
2019-05-20T17:07:29.943Z,20.33
2019-05-20T17:10:00.103Z,19.87
2019-05-20T17:12:30.374Z,14.10
2019-05-20T17:15:00.489Z,15.33
2019-05-20T17:17:40.124Z,19.07
2019-05-20T17:20:07.741Z,15.57
2019-05-20T17:22:37.930Z,16.03
2019-05-20T17:25:08.329Z,17.20
2019-05-20T17:27:47.224Z,15.53
2019-05-20T17:30:17.953Z,16.70
2019-05-20T17:33:10.241Z,15.50
2019-05-20T17:35:40.493Z,23.90
2019-05-20T17:41:02.930Z,17.23
2019-05-20T17:43:33.130Z,15.13
2019-05-20T17:46:03.353Z,16.83
2019-05-20T17:48:33.661Z,18.63
2019-05-20T17:51:03.942Z,21.17
2019-05-20T17:53:34.316Z,43.00
2019-05-20T17:56:04.544Z,32.23
2019-05-20T17:58:37.263Z,28.40
2019-05-20T18:01:15.278Z,32.90
2019-05-20T18:03:38.451Z,30.20
2019-05-20T18:06:08.678Z,30.57
2019-05-20T18:08:41.841Z,29.90
2019-05-20T18:11:12.024Z,33.30
2019-05-20T18:13:42.169Z,28.90
2019-05-20T18:16:24.175Z,25.00
2019-05-20T18:18:54.400Z,20.87
2019-05-20T18:21:46.983Z,24.60
2019-05-20T18:24:17.133Z,22.40
2019-05-20T18:27:09.069Z,18.80
2019-05-20T18:29:39.183Z,22.33
2019-05-20T18:32:10.441Z,19.63
2019-05-20T18:34:40.647Z,19.10
2019-05-20T18:37:10.854Z,25.57
2019-05-20T18:39:41.049Z,21.30
2019-05-20T18:42:11.258Z,16.50
2019-05-20T18:44:41.406Z,15.67
2019-05-20T18:47:11.632Z,17.37
2019-05-20T18:49:41.955Z,15.27
2019-05-20T18:52:12.390Z,36.67
2019-05-20T18:54:42.619Z,20.80
2019-05-20T18:57:12.784Z,20.27
2019-05-20T18:59:43.007Z,19.70
2019-05-20T19:02:13.169Z,20.40
2019-05-20T19:05:06.468Z,18.27
2019-05-20T19:07:36.627Z,13.10
2019-05-20T19:10:25.736Z,10.33
2019-05-20T19:12:55.978Z,13.77
2019-05-20T19:15:26.173Z,14.33
2019-05-20T19:17:56.337Z,14.90
2019-05-20T19:20:26.537Z,10.43
2019-05-20T19:22:56.646Z,11.67
2019-05-20T19:25:37.317Z,14.33
2019-05-20T19:27:58.861Z,12.87
2019-05-20T19:30:29.053Z,16.40
2019-05-20T19:32:59.295Z,15.03
2019-05-20T19:35:29.482Z,16.00
2019-05-20T19:37:59.628Z,13.33
2019-05-20T19:40:29.785Z,18.80
2019-05-20T19:43:00.021Z,15.60
2019-05-20T19:45:30.537Z,14.10
2019-05-20T19:48:19.064Z,13.07
2019-05-20T19:50:49.251Z,23.03
2019-05-20T19:53:41.640Z,28.07
2019-05-20T19:56:11.810Z,15.17
2019-05-20T19:58:56.351Z,14.37
2019-05-20T20:01:24.839Z,14.50
2019-05-20T20:03:54.999Z,21.80
2019-05-20T20:06:25.393Z,13.77
2019-05-20T20:08:55.625Z,15.07
2019-05-20T20:11:25.780Z,22.93
2019-05-20T20:13:55.904Z,13.73
2019-05-20T20:16:26.116Z,15.40
2019-05-20T20:18:56.283Z,14.67
2019-05-20T20:21:26.595Z,10.63
2019-05-20T20:23:56.891Z,16.57
2019-05-20T20:26:27.090Z,17.00
2019-05-20T20:28:57.689Z,18.90
2019-05-20T20:31:39.617Z,16.60
2019-05-20T20:34:09.793Z,18.97
2019-05-20T20:37:03.098Z,15.53
2019-05-20T20:39:34.467Z,14.00
2019-05-20T20:42:23.971Z,14.60
2019-05-20T20:44:54.113Z,18.73
2019-05-20T20:47:40.770Z,14.60
2019-05-20T20:49:58.657Z,16.10
2019-05-20T20:52:32.357Z,11.53
2019-05-20T20:55:04.166Z,19.07
2019-05-20T20:57:34.253Z,22.43
2019-05-20T21:00:04.637Z,14.23
2019-05-20T21:02:34.777Z,16.80
2019-05-20T21:05:04.986Z,19.40
2019-05-20T21:07:35.131Z,19.57
2019-05-20T21:10:05.961Z,18.63
2019-05-20T21:12:36.133Z,18.57
2019-05-20T21:15:07.234Z,15.37
2019-05-20T21:17:37.408Z,19.17
2019-05-20T21:20:14.714Z,18.90
2019-05-20T21:22:47.358Z,20.03
2019-05-20T21:25:37.996Z,19.07
2019-05-20T21:28:08.200Z,18.87
2019-05-20T21:31:01.375Z,20.10
2019-05-20T21:33:31.671Z,22.63
2019-05-20T21:38:56.469Z,16.77
2019-05-20T21:41:49.384Z,20.93
2019-05-20T21:44:19.590Z,17.80
2019-05-20T21:47:11.112Z,13.93
2019-05-20T21:49:41.271Z,20.93
2019-05-20T21:52:11.412Z,14.53
2019-05-20T21:55:00.689Z,20.90
2019-05-20T21:57:31.090Z,14.70
2019-05-20T22:00:01.443Z,13.30
2019-05-20T22:02:31.566Z,16.27
2019-05-20T22:05:01.859Z,15.70
2019-05-20T22:07:32.176Z,18.40
2019-05-20T22:10:02.640Z,17.40
2019-05-20T22:12:32.809Z,13.23
2019-05-20T22:15:03.010Z,20.67
2019-05-20T22:17:33.156Z,15.23
2019-05-20T22:20:03.299Z,16.87
2019-05-20T22:22:55.592Z,16.10
2019-05-20T22:25:25.741Z,11.43
2019-05-20T22:27:55.924Z,16.87
2019-05-20T22:30:29.176Z,10.27
2019-05-20T22:32:59.289Z,12.87
2019-05-20T22:35:52.400Z,10.00
2019-05-20T22:38:22.544Z,14.43
2019-05-20T22:41:08.753Z,11.97
2019-05-20T22:43:39.103Z,11.90
2019-05-20T22:46:09.220Z,8.50
2019-05-20T22:48:39.369Z,15.70
2019-05-20T22:51:09.504Z,9.43
2019-05-20T22:53:39.644Z,12.37
2019-05-20T22:56:09.756Z,14.07
2019-05-20T22:58:40.117Z,11.37
2019-05-20T23:01:10.315Z,11.17
2019-05-20T23:03:40.487Z,13.33
2019-05-20T23:06:10.632Z,16.20
2019-05-20T23:08:40.785Z,19.03
2019-05-20T23:11:10.901Z,9.43
2019-05-20T23:13:41.064Z,9.07
2019-05-20T23:16:11.192Z,45.27
2019-05-20T23:19:02.648Z,43.30
2019-05-20T23:21:32.796Z,15.63
2019-05-20T23:24:16.605Z,11.57
2019-05-20T23:26:43.636Z,13.27
2019-05-20T23:29:13.821Z,15.63
2019-05-20T23:31:43.981Z,12.83
2019-05-20T23:34:14.098Z,13.87
2019-05-20T23:36:44.268Z,16.67
2019-05-20T23:39:14.370Z,13.57
2019-05-20T23:41:44.520Z,12.83
2019-05-20T23:44:14.683Z,19.47
2019-05-20T23:46:44.801Z,40.77
2019-05-20T23:49:14.966Z,56.73
2019-05-20T23:51:45.077Z,19.00
2019-05-20T23:54:15.297Z,14.87
2019-05-20T23:56:52.836Z,21.30
2019-05-20T23:59:23.012Z,18.90
